Time;durP1;ratioP1;P1;durP2;ratioP2;P2;SDS_P1;SDS_P2;PMS_P1;PMS_P2;Temp;Humidity;BMP_temperature;BMP_pressure;BME280_temperature;BME280_humidity;BME280_pressure;Samples;Min_cycle;Max_cycle;Signal;HPM_P1;HPM_P2
2021/08/01 00:02:13;;;;;;;10.52;4.13;;;17.20;99.90;;;;;;6302444;22;20041;-63
2021/08/01 00:04:39;;;;;;;10.32;3.15;;;17.10;99.90;;;;;;6300598;22;20011;-63
2021/08/01 00:07:05;;;;;;;10.93;3.67;;;17.10;99.90;;;;;;6302185;22;19999;-63
2021/08/01 00:09:30;;;;;;;4.88;3.42;;;17.10;99.90;;;;;;6301345;22;20003;-63
2021/08/01 00:11:56;;;;;;;10.80;3.78;;;17.10;99.90;;;;;;6301398;22;20477;-63
2021/08/01 00:14:21;;;;;;;11.55;3.72;;;17.20;99.90;;;;;;6302872;22;20351;-63
2021/08/01 00:16:47;;;;;;;11.02;3.47;;;17.10;99.90;;;;;;6303432;22;20000;-63
2021/08/01 00:19:13;;;;;;;8.50;4.00;;;17.10;99.90;;;;;;6303904;22;20064;-62
2021/08/01 00:21:38;;;;;;;10.93;4.38;;;17.10;99.90;;;;;;6303868;22;19999;-63
2021/08/01 00:24:04;;;;;;;7.32;4.13;;;17.00;99.90;;;;;;6303699;22;19995;-63
2021/08/01 00:26:30;;;;;;;7.97;3.58;;;17.00;99.90;;;;;;6304617;22;20439;-63
2021/08/01 00:28:56;;;;;;;7.63;4.07;;;16.90;99.90;;;;;;6305475;22;20061;-63
2021/08/01 00:31:22;;;;;;;10.57;4.40;;;16.80;99.90;;;;;;6304202;22;20018;-63
2021/08/01 00:33:47;;;;;;;13.90;4.60;;;16.70;99.90;;;;;;6303921;22;20391;-63
2021/08/01 00:36:13;;;;;;;10.60;4.53;;;16.70;99.90;;;;;;6303954;22;20003;-63
2021/08/01 00:38:38;;;;;;;15.75;3.97;;;16.60;99.90;;;;;;6303721;22;20382;-62
2021/08/01 00:41:04;;;;;;;13.75;4.45;;;16.50;99.90;;;;;;6302775;22;20006;-63
2021/08/01 00:43:31;;;;;;;9.85;4.65;;;16.40;99.90;;;;;;6303845;22;20000;-63
2021/08/01 00:45:57;;;;;;;8.68;4.10;;;16.40;99.90;;;;;;6304138;22;20124;-63
2021/08/01 00:48:24;;;;;;;11.55;4.22;;;16.40;99.90;;;;;;6303461;22;20023;-63
2021/08/01 00:50:49;;;;;;;9.82;4.18;;;16.20;99.90;;;;;;6302476;22;20317;-62
2021/08/01 00:53:15;;;;;;;11.18;4.68;;;16.10;99.90;;;;;;6302253;22;20060;-63
2021/08/01 00:55:41;;;;;;;10.38;3.30;;;16.20;99.90;;;;;;6301923;22;20431;-63
2021/08/01 00:58:07;;;;;;;8.23;3.78;;;16.20;99.90;;;;;;6302592;22;20439;-63
2021/08/01 01:03:21;;;;;;;8.90;3.90;;;16.20;99.90;;;;;;6303882;22;20048;-63
2021/08/01 01:06:00;;;;;;;8.02;4.10;;;16.20;99.90;;;;;;6273154;22;20359;-63
2021/08/01 01:08:54;;;;;;;9.55;3.58;;;16.10;99.90;;;;;;6275390;22;20455;-63
2021/08/01 01:11:23;;;;;;;8.82;4.05;;;16.00;99.90;;;;;;6274961;22;20004;-63
2021/08/01 01:13:54;;;;;;;11.75;4.68;;;16.00;99.90;;;;;;6274934;22;20010;-63
2021/08/01 01:16:20;;;;;;;6.45;4.10;;;16.10;99.90;;;;;;6274985;22;20002;-63
2021/08/01 01:18:51;;;;;;;10.30;4.10;;;16.00;99.90;;;;;;6274194;22;20000;-63
2021/08/01 01:21:38;;;;;;;11.40;4.22;;;16.10;99.90;;;;;;6275093;22;20000;-63
2021/08/01 01:24:08;;;;;;;6.80;3.88;;;16.10;99.90;;;;;;6274020;22;20090;-62
2021/08/01 01:26:38;;;;;;;7.65;4.05;;;16.10;99.90;;;;;;6273892;22;20007;-63
2021/08/01 01:29:42;;;;;;;10.65;4.35;;;16.10;99.90;;;;;;6273958;22;19996;-63
2021/08/01 01:32:11;;;;;;;9.90;3.55;;;16.20;99.90;;;;;;6274191;22;20340;-63
2021/08/01 01:35:00;;;;;;;8.13;3.67;;;16.20;99.90;;;;;;6275266;22;20462;-63
2021/08/01 01:37:26;;;;;;;16.83;4.13;;;16.20;99.90;;;;;;6274628;22;19995;-63
2021/08/01 01:39:53;;;;;;;12.95;4.72;;;16.10;99.90;;;;;;6274887;22;20050;-63
2021/08/01 01:42:22;;;;;;;9.43;4.60;;;16.10;99.90;;;;;;6275226;22;20086;-62
2021/08/01 01:44:49;;;;;;;11.35;4.93;;;16.10;99.90;;;;;;6271168;22;20505;-63
2021/08/01 01:47:16;;;;;;;10.27;5.30;;;16.10;99.90;;;;;;6273179;22;20008;-63
2021/08/01 01:49:42;;;;;;;6.97;4.32;;;16.10;99.90;;;;;;6273651;22;20497;-63
2021/08/01 01:52:14;;;;;;;8.80;4.95;;;16.20;99.90;;;;;;6275177;22;20042;-63
2021/08/01 01:54:40;;;;;;;18.83;6.28;;;16.20;99.90;;;;;;6274464;22;20446;-63
2021/08/01 01:57:06;;;;;;;8.82;5.40;;;16.10;99.90;;;;;;6274272;22;20004;-63
2021/08/01 01:59:32;;;;;;;10.60;5.15;;;16.20;99.90;;;;;;6274144;22;20073;-62
2021/08/01 02:01:58;;;;;;;13.38;5.18;;;16.30;99.90;;;;;;6273777;22;20014;-63
2021/08/01 02:04:23;;;;;;;9.88;5.35;;;16.30;99.90;;;;;;6287934;22;20018;-62
2021/08/01 02:06:49;;;;;;;7.95;4.90;;;16.30;99.90;;;;;;6304921;22;20007;-63
2021/08/01 02:09:47;;;;;;;8.90;5.13;;;16.40;99.90;;;;;;6303921;22;20003;-63
2021/08/01 02:12:16;;;;;;;8.63;4.95;;;16.40;99.90;;;;;;6305328;22;20432;-63
2021/08/01 02:15:05;;;;;;;10.07;4.97;;;16.40;99.90;;;;;;6305048;22;20007;-63
2021/08/01 02:17:43;;;;;;;7.78;4.15;;;16.50;99.90;;;;;;6303984;22;19999;-63
2021/08/01 02:20:11;;;;;;;8.63;4.50;;;16.50;99.90;;;;;;6304581;22;20031;-63
2021/08/01 02:22:37;;;;;;;9.60;4.32;;;16.60;99.90;;;;;;6305668;22;20010;-63
2021/08/01 02:25:05;;;;;;;6.35;4.70;;;16.60;99.90;;;;;;6304486;22;20008;-63
2021/08/01 02:27:33;;;;;;;8.45;4.90;;;16.50;99.90;;;;;;6304458;22;20006;-63
2021/08/01 02:30:01;;;;;;;7.72;4.80;;;16.50;99.90;;;;;;6303209;22;20007;-63
2021/08/01 02:32:27;;;;;;;9.07;4.85;;;16.50;99.90;;;;;;6304959;22;19999;-63
2021/08/01 02:34:54;;;;;;;7.32;4.03;;;16.50;99.90;;;;;;6304067;22;20446;-63
2021/08/01 02:37:20;;;;;;;13.80;4.53;;;16.60;99.90;;;;;;6305000;22;20427;-63
2021/08/01 02:39:46;;;;;;;9.50;5.03;;;16.60;99.90;;;;;;6305243;22;20027;-63
2021/08/01 02:42:14;;;;;;;10.00;3.90;;;16.50;99.90;;;;;;6305012;22;20064;-63
2021/08/01 02:44:41;;;;;;;8.88;4.32;;;16.60;99.90;;;;;;6304871;22;20034;-63
2021/08/01 02:47:09;;;;;;;9.13;4.63;;;16.60;99.90;;;;;;6303346;22;20026;-63
2021/08/01 02:49:39;;;;;;;9.35;4.55;;;16.60;99.90;;;;;;6302783;22;20062;-64
2021/08/01 02:52:07;;;;;;;16.23;4.85;;;16.60;99.90;;;;;;6304756;22;20003;-63
2021/08/01 02:54:34;;;;;;;13.20;4.13;;;16.60;99.90;;;;;;6305232;22;20010;-63
2021/08/01 02:57:03;;;;;;;9.30;4.28;;;16.60;99.90;;;;;;6304867;22;19999;-62
2021/08/01 02:59:31;;;;;;;10.13;4.88;;;16.50;99.90;;;;;;6304552;22;20007;-63
2021/08/01 03:01:57;;;;;;;7.53;4.80;;;16.50;99.90;;;;;;6303772;22;20025;-63
2021/08/01 03:04:24;;;;;;;6.55;4.70;;;16.50;99.90;;;;;;6304890;22;20007;-62
2021/08/01 03:06:52;;;;;;;6.55;4.15;;;16.40;99.90;;;;;;6305197;22;20082;-63
2021/08/01 03:09:18;;;;;;;8.38;4.20;;;16.40;99.90;;;;;;6304680;22;20367;-63
2021/08/01 03:11:43;;;;;;;9.80;4.25;;;16.40;99.90;;;;;;6304570;22;20273;-62
2021/08/01 03:14:10;;;;;;;7.15;4.45;;;16.40;99.90;;;;;;6305109;22;20044;-63
2021/08/01 03:16:35;;;;;;;10.90;4.35;;;16.30;99.90;;;;;;6304285;22;20010;-63
2021/08/01 03:19:01;;;;;;;12.27;5.28;;;16.30;99.90;;;;;;6304708;22;20366;-63
2021/08/01 03:21:27;;;;;;;8.63;5.00;;;16.30;99.90;;;;;;6304869;22;20419;-61
2021/08/01 03:23:52;;;;;;;10.27;4.88;;;16.30;99.90;;;;;;6304175;22;20466;-63
2021/08/01 03:26:18;;;;;;;12.70;4.93;;;16.30;99.90;;;;;;6304400;22;20043;-63
2021/08/01 03:28:43;;;;;;;14.85;4.97;;;16.40;99.90;;;;;;6304589;22;20320;-63
2021/08/01 03:31:09;;;;;;;12.95;4.72;;;16.40;99.90;;;;;;6304574;22;20313;-63
2021/08/01 03:33:34;;;;;;;12.88;5.10;;;16.40;99.90;;;;;;6304251;22;20344;-63
2021/08/01 03:36:00;;;;;;;9.05;5.07;;;16.40;99.90;;;;;;6304302;22;20039;-63
2021/08/01 03:38:25;;;;;;;12.30;5.88;;;16.40;99.90;;;;;;6305002;22;20082;-62
2021/08/01 03:40:51;;;;;;;11.25;5.95;;;16.40;99.90;;;;;;6304587;22;20387;-63
2021/08/01 03:43:17;;;;;;;12.77;5.93;;;16.30;99.90;;;;;;6304604;22;20420;-63
2021/08/01 03:45:43;;;;;;;13.10;6.53;;;16.30;99.90;;;;;;6303881;22;20457;-63
2021/08/01 03:48:09;;;;;;;9.32;5.90;;;16.20;99.90;;;;;;6277541;22;20004;-63
2021/08/01 03:50:34;;;;;;;19.55;5.93;;;16.20;99.90;;;;;;6303787;22;20378;-61
2021/08/01 03:53:00;;;;;;;12.13;6.32;;;16.20;99.90;;;;;;6300792;22;20003;-63
2021/08/01 03:55:25;;;;;;;15.25;7.05;;;16.10;99.90;;;;;;6304087;22;20006;-62
2021/08/01 03:57:51;;;;;;;11.85;5.38;;;16.20;99.90;;;;;;6304610;22;20467;-63
2021/08/01 04:00:16;;;;;;;12.38;6.15;;;16.10;99.90;;;;;;6303823;22;20312;-63
2021/08/01 04:02:42;;;;;;;13.82;6.25;;;16.00;99.90;;;;;;6303309;22;20081;-63
2021/08/01 04:05:08;;;;;;;13.40;6.88;;;15.90;99.90;;;;;;6304371;22;20084;-63
2021/08/01 04:07:34;;;;;;;12.52;6.18;;;15.90;99.90;;;;;;6303437;22;20072;-63
2021/08/01 04:09:59;;;;;;;14.57;6.45;;;15.90;99.90;;;;;;6304466;22;20358;-63
2021/08/01 04:12:25;;;;;;;14.35;6.95;;;16.00;99.90;;;;;;6304269;22;20055;-63
2021/08/01 04:14:51;;;;;;;13.73;6.82;;;16.00;99.90;;;;;;6304696;22;20000;-63
2021/08/01 04:17:18;;;;;;;10.95;7.95;;;16.00;99.90;;;;;;6303951;22;20000;-63
2021/08/01 04:19:44;;;;;;;14.30;8.77;;;16.10;99.90;;;;;;6304497;22;20382;-63
2021/08/01 04:22:10;;;;;;;15.77;7.60;;;16.00;99.90;;;;;;6303832;22;20003;-63
2021/08/01 04:24:36;;;;;;;18.25;7.65;;;16.10;99.90;;;;;;6303062;22;20096;-63
2021/08/01 04:27:01;;;;;;;16.50;8.13;;;16.10;99.90;;;;;;6303395;22;20010;-63
2021/08/01 04:29:27;;;;;;;19.00;7.82;;;16.10;99.90;;;;;;6302448;22;20003;-62
2021/08/01 04:31:52;;;;;;;14.00;7.88;;;16.10;99.90;;;;;;6302624;22;20086;-63
2021/08/01 04:34:18;;;;;;;22.17;8.40;;;16.10;99.90;;;;;;6304706;22;20018;-63
2021/08/01 04:36:44;;;;;;;15.38;8.30;;;16.00;99.90;;;;;;6303645;22;20622;-62
2021/08/01 04:39:09;;;;;;;16.17;8.50;;;16.00;99.90;;;;;;6303229;22;20407;-63
2021/08/01 04:41:35;;;;;;;15.02;7.78;;;16.00;99.90;;;;;;6304262;22;20343;-63
2021/08/01 04:44:01;;;;;;;12.95;7.97;;;16.00;99.90;;;;;;6304358;22;20048;-63
2021/08/01 04:46:26;;;;;;;17.45;8.30;;;16.00;99.90;;;;;;6304495;22;19999;-63
2021/08/01 04:48:52;;;;;;;14.02;7.43;;;16.10;99.90;;;;;;6303012;22;20316;-62
2021/08/01 04:51:17;;;;;;;19.95;7.68;;;16.10;99.90;;;;;;6303661;22;20382;-63
2021/08/01 04:53:43;;;;;;;16.13;8.30;;;16.10;99.90;;;;;;6303389;22;20346;-63
2021/08/01 04:56:09;;;;;;;13.18;7.97;;;16.10;99.90;;;;;;6300854;22;19999;-62
2021/08/01 04:58:35;;;;;;;25.05;8.93;;;16.00;99.90;;;;;;6304161;22;20003;-63
2021/08/01 05:01:02;;;;;;;16.35;7.53;;;16.00;99.90;;;;;;6305678;22;20096;-62
2021/08/01 05:06:01;;;;;;;16.38;8.18;;;16.00;99.90;;;;;;6304330;22;20023;-55
2021/08/01 05:08:27;;;;;;;19.17;7.93;;;16.00;99.90;;;;;;6304282;22;20004;-60
2021/08/01 05:10:52;;;;;;;15.98;7.63;;;16.10;99.90;;;;;;6304083;22;20027;-58
2021/08/01 05:13:18;;;;;;;11.95;6.43;;;16.10;99.90;;;;;;6303819;22;20315;-56
2021/08/01 05:15:44;;;;;;;19.48;7.75;;;16.10;99.90;;;;;;6303640;22;20426;-53
2021/08/01 05:18:09;;;;;;;16.92;7.60;;;16.00;99.90;;;;;;6276533;22;20335;-56
2021/08/01 05:20:43;;;;;;;16.58;7.40;;;15.90;99.90;;;;;;6304855;22;19998;-57
2021/08/01 05:23:10;;;;;;;13.05;6.70;;;16.00;99.90;;;;;;6305432;22;20004;-59
2021/08/01 05:25:35;;;;;;;14.05;7.38;;;16.00;99.90;;;;;;6304354;22;20466;-59
2021/08/01 05:28:01;;;;;;;18.08;8.48;;;16.00;99.90;;;;;;6304408;22;19999;-59
2021/08/01 05:30:27;;;;;;;21.38;8.65;;;15.90;99.90;;;;;;6303290;22;20355;-54
2021/08/01 05:32:52;;;;;;;18.73;8.05;;;16.00;99.90;;;;;;6303000;22;20023;-57
2021/08/01 05:35:18;;;;;;;12.52;7.57;;;16.00;99.90;;;;;;6303440;22;20002;-59
2021/08/01 05:37:43;;;;;;;15.57;7.45;;;16.00;99.90;;;;;;6303827;22;20492;-56
2021/08/01 05:40:10;;;;;;;18.73;8.73;;;15.90;99.90;;;;;;6303989;22;20568;-54
2021/08/01 05:42:36;;;;;;;20.17;8.60;;;15.90;99.90;;;;;;6304080;22;20009;-57
2021/08/01 05:45:03;;;;;;;16.17;8.57;;;15.90;99.90;;;;;;6303686;22;20325;-59
2021/08/01 05:47:29;;;;;;;17.40;8.38;;;15.90;99.90;;;;;;6302156;22;20003;-53
2021/08/01 05:49:54;;;;;;;15.50;8.05;;;15.80;99.90;;;;;;6304050;22;20375;-54
2021/08/01 05:52:20;;;;;;;15.68;8.30;;;15.70;99.90;;;;;;6303317;22;20052;-53
2021/08/01 05:54:45;;;;;;;14.95;7.88;;;15.80;99.90;;;;;;6304611;22;20031;-57
2021/08/01 05:57:11;;;;;;;19.02;8.00;;;15.70;99.90;;;;;;6302933;22;20003;-54
2021/08/01 05:59:36;;;;;;;14.75;7.88;;;15.70;99.90;;;;;;6299968;22;19999;-58
2021/08/01 06:02:02;;;;;;;17.92;6.97;;;15.60;99.90;;;;;;6302295;22;20009;-53
2021/08/01 06:04:28;;;;;;;17.33;9.00;;;15.70;99.90;;;;;;6304329;22;20011;-54
2021/08/01 06:06:53;;;;;;;18.08;8.38;;;15.70;99.90;;;;;;6304821;22;20427;-56
2021/08/01 06:09:19;;;;;;;13.93;7.85;;;15.70;99.90;;;;;;6303882;22;20082;-55
2021/08/01 06:11:44;;;;;;;16.00;7.85;;;15.80;99.90;;;;;;6304350;22;20736;-54
2021/08/01 06:14:10;;;;;;;17.05;9.10;;;15.90;99.90;;;;;;6303269;22;20000;-55
2021/08/01 06:16:35;;;;;;;19.88;8.68;;;15.90;99.90;;;;;;6303712;22;20000;-58
2021/08/01 06:19:01;;;;;;;25.50;8.57;;;15.90;99.90;;;;;;6303819;22;20003;-53
2021/08/01 06:21:29;;;;;;;17.92;8.05;;;15.90;99.90;;;;;;6303467;22;19995;-57
2021/08/01 06:23:54;;;;;;;14.57;7.53;;;16.00;99.90;;;;;;6303651;22;20007;-56
2021/08/01 06:26:21;;;;;;;20.33;8.20;;;16.10;99.90;;;;;;6303507;22;20004;-56
2021/08/01 06:28:48;;;;;;;16.73;8.63;;;16.10;99.90;;;;;;6303249;22;20008;-56
2021/08/01 06:31:14;;;;;;;15.43;6.93;;;16.10;99.90;;;;;;6303912;22;20007;-58
2021/08/01 06:33:40;;;;;;;12.02;6.78;;;16.20;99.90;;;;;;6304152;22;20090;-56
2021/08/01 06:36:08;;;;;;;9.63;5.80;;;16.20;99.90;;;;;;6303855;22;20010;-58
2021/08/01 06:38:33;;;;;;;16.25;6.40;;;16.30;99.90;;;;;;6303662;22;20075;-55
2021/08/01 06:40:59;;;;;;;10.75;6.07;;;16.40;99.90;;;;;;6303221;22;20697;-53
2021/08/01 06:43:25;;;;;;;19.75;6.22;;;16.40;99.90;;;;;;6302603;22;20439;-57
2021/08/01 06:45:50;;;;;;;17.75;5.93;;;16.40;99.90;;;;;;6301730;22;20003;-54
2021/08/01 06:48:16;;;;;;;14.70;6.15;;;16.50;99.90;;;;;;6302588;22;20000;-58
2021/08/01 06:50:41;;;;;;;13.02;5.68;;;16.50;99.90;;;;;;6303077;22;20010;-59
2021/08/01 06:53:07;;;;;;;15.02;5.38;;;16.60;99.90;;;;;;6303780;22;20034;-54
2021/08/01 06:55:32;;;;;;;15.38;5.20;;;16.70;99.90;;;;;;6303496;22;20041;-54
2021/08/01 06:57:58;;;;;;;10.70;5.35;;;16.70;99.90;;;;;;6303025;22;20005;-57
2021/08/01 07:00:24;;;;;;;10.05;5.05;;;16.80;99.90;;;;;;6302057;22;20009;-58
2021/08/01 07:03:00;;;;;;;10.48;5.45;;;16.80;99.90;;;;;;6301361;22;20387;-53
2021/08/01 07:05:27;;;;;;;11.38;5.05;;;16.80;99.90;;;;;;6302508;22;20097;-59
2021/08/01 07:07:55;;;;;;;15.15;5.03;;;16.90;99.90;;;;;;6303864;22;20010;-57
2021/08/01 07:10:21;;;;;;;14.98;5.22;;;17.00;99.90;;;;;;6302878;22;20072;-58
2021/08/01 07:12:46;;;;;;;16.08;4.50;;;17.00;99.90;;;;;;6303308;22;20007;-61
2021/08/01 07:15:16;;;;;;;8.93;5.07;;;17.00;99.90;;;;;;6303025;22;20466;-57
2021/08/01 07:17:42;;;;;;;9.30;4.53;;;17.10;99.90;;;;;;6303316;22;20007;-55
2021/08/01 07:20:09;;;;;;;12.13;4.28;;;17.20;99.90;;;;;;6276331;22;20308;-52
2021/08/01 07:22:35;;;;;;;9.63;4.43;;;17.20;99.90;;;;;;6303200;22;20062;-55
2021/08/01 07:25:01;;;;;;;12.68;4.40;;;17.30;99.90;;;;;;6303152;22;20011;-53
2021/08/01 07:27:26;;;;;;;9.10;3.90;;;17.30;99.90;;;;;;6301925;22;20389;-57
2021/08/01 07:29:52;;;;;;;9.88;4.40;;;17.30;99.90;;;;;;6303067;22;20440;-57
2021/08/01 07:32:17;;;;;;;7.40;3.50;;;17.40;99.90;;;;;;6302833;22;20336;-58
2021/08/01 07:34:43;;;;;;;9.63;3.35;;;17.40;99.90;;;;;;6302963;22;19999;-55
2021/08/01 07:37:09;;;;;;;11.05;3.65;;;17.50;99.90;;;;;;6302887;22;20006;-55
2021/08/01 07:39:34;;;;;;;11.70;4.00;;;17.60;99.90;;;;;;6273075;22;20014;-56
2021/08/01 07:42:00;;;;;;;9.00;3.78;;;17.50;99.90;;;;;;6302356;22;19999;-57
2021/08/01 07:44:28;;;;;;;10.55;3.53;;;17.60;99.90;;;;;;6303096;22;19999;-54
2021/08/01 07:46:54;;;;;;;13.10;4.10;;;17.70;99.90;;;;;;6301982;22;20004;-56
2021/08/01 07:49:19;;;;;;;12.75;4.20;;;17.70;99.90;;;;;;6302655;22;20312;-54
2021/08/01 07:51:45;;;;;;;11.93;3.35;;;17.70;99.90;;;;;;6303303;22;20053;-59
2021/08/01 07:54:10;;;;;;;9.10;3.17;;;17.80;99.90;;;;;;6303780;22;20489;-60
2021/08/01 07:56:36;;;;;;;8.77;3.55;;;17.90;99.90;;;;;;6302592;22;20000;-53
2021/08/01 07:59:01;;;;;;;8.05;3.58;;;17.90;99.90;;;;;;6304032;22;20427;-52
2021/08/01 08:01:27;;;;;;;9.70;3.35;;;18.00;99.90;;;;;;6302895;22;20003;-55
2021/08/01 08:03:52;;;;;;;8.50;3.40;;;18.10;99.90;;;;;;6302263;22;20321;-54
2021/08/01 08:06:18;;;;;;;14.07;3.60;;;18.10;99.90;;;;;;6301819;22;20443;-53
2021/08/01 08:08:44;;;;;;;6.80;3.00;;;18.20;99.90;;;;;;6300424;22;19999;-56
2021/08/01 08:11:09;;;;;;;4.60;2.88;;;18.30;99.90;;;;;;6302152;22;20007;-59
2021/08/01 08:13:35;;;;;;;7.53;3.53;;;18.30;99.90;;;;;;6302855;22;20385;-56
2021/08/01 08:16:00;;;;;;;4.72;3.03;;;18.30;99.90;;;;;;6300852;22;20029;-56
2021/08/01 08:18:26;;;;;;;8.35;3.45;;;18.30;99.90;;;;;;6302380;22;20078;-55
2021/08/01 08:20:51;;;;;;;10.93;2.67;;;18.30;99.90;;;;;;6302779;22;20030;-56
2021/08/01 08:23:17;;;;;;;7.72;3.08;;;18.40;99.90;;;;;;6299369;22;20011;-55
2021/08/01 08:25:43;;;;;;;9.73;3.25;;;18.60;99.90;;;;;;6299474;22;20006;-61
2021/08/01 08:28:08;;;;;;;6.65;2.75;;;18.50;99.90;;;;;;6300333;22;20011;-60
2021/08/01 08:30:34;;;;;;;8.93;3.20;;;18.50;99.90;;;;;;6300755;22;20007;-59
2021/08/01 08:33:00;;;;;;;9.18;3.20;;;18.50;99.90;;;;;;6274102;22;20649;-53
2021/08/01 08:35:26;;;;;;;8.68;2.83;;;18.50;99.90;;;;;;6300911;22;20078;-53
2021/08/01 08:37:52;;;;;;;6.40;2.70;;;18.60;99.90;;;;;;6300871;22;20056;-56
2021/08/01 08:40:18;;;;;;;5.60;2.40;;;18.60;99.90;;;;;;6304245;22;19999;-53
2021/08/01 08:42:45;;;;;;;5.07;2.50;;;18.60;99.90;;;;;;6305538;22;20007;-54
2021/08/01 08:45:15;;;;;;;3.80;2.38;;;18.60;99.90;;;;;;6304905;22;20413;-59
2021/08/01 08:47:43;;;;;;;7.30;2.60;;;18.70;99.90;;;;;;6305531;22;20007;-53
2021/08/01 08:50:12;;;;;;;6.97;2.67;;;18.70;99.90;;;;;;6304962;22;19999;-59
2021/08/01 08:52:40;;;;;;;8.98;2.20;;;18.70;99.90;;;;;;6305088;22;20422;-56
2021/08/01 08:55:07;;;;;;;5.30;2.15;;;18.80;99.90;;;;;;6277580;22;20007;-55
2021/08/01 08:57:43;;;;;;;4.70;2.50;;;18.90;99.90;;;;;;6303121;22;20545;-56
2021/08/01 09:00:12;;;;;;;4.00;2.00;;;19.10;99.90;;;;;;6304980;22;20000;-55
2021/08/01 09:02:38;;;;;;;7.05;2.80;;;19.30;99.90;;;;;;6303819;22;20304;-57
2021/08/01 09:05:06;;;;;;;8.13;2.70;;;19.30;99.90;;;;;;6304306;22;20011;-60
2021/08/01 09:07:35;;;;;;;7.93;2.80;;;19.10;99.90;;;;;;6304037;22;20359;-61
2021/08/01 09:10:01;;;;;;;8.32;2.85;;;18.90;99.90;;;;;;6304475;22;20068;-58
2021/08/01 09:12:27;;;;;;;7.28;2.35;;;18.90;99.90;;;;;;6304340;22;20086;-56
2021/08/01 09:15:15;;;;;;;4.82;2.45;;;19.00;99.90;;;;;;6303820;22;20502;-60
2021/08/01 09:17:42;;;;;;;5.22;2.25;;;18.90;99.90;;;;;;6302966;22;20332;-61
2021/08/01 09:20:17;;;;;;;10.48;2.10;;;19.00;99.90;;;;;;6303963;22;19996;-59
2021/08/01 09:22:43;;;;;;;;;;;19.20;99.90;;;;;;6306006;22;20007;-61
2021/08/01 09:25:18;;;;;;;6.20;2.30;;;19.40;99.90;;;;;;6303058;22;19903;-61
2021/08/01 09:27:44;;;;;;;8.05;2.80;;;19.60;99.90;;;;;;6302907;22;20022;-60
2021/08/01 09:30:11;;;;;;;2.95;1.85;;;19.70;99.90;;;;;;6303432;22;20010;-61
2021/08/01 09:32:48;;;;;;;8.13;2.28;;;19.60;99.90;;;;;;6303666;22;20006;-61
2021/08/01 09:35:20;;;;;;;7.32;2.60;;;19.20;99.90;;;;;;6303138;22;20031;-59
2021/08/01 09:37:57;;;;;;;7.90;2.95;;;19.20;99.90;;;;;;6302728;22;20034;-59
2021/08/01 09:40:28;;;;;;;4.70;2.63;;;19.20;99.90;;;;;;6299847;22;20064;-61
2021/08/01 09:42:54;;;;;;;5.60;2.67;;;19.30;99.90;;;;;;6303467;22;20006;-59
2021/08/01 09:45:21;;;;;;;6.93;2.63;;;19.50;99.90;;;;;;6302631;22;19999;-60
2021/08/01 09:47:49;;;;;;;15.93;2.83;;;19.60;99.90;;;;;;6304361;22;20003;-58
2021/08/01 09:50:16;;;;;;;3.95;2.08;;;19.50;99.90;;;;;;6303328;22;20056;-59
2021/08/01 09:52:43;;;;;;;7.38;2.58;;;19.40;99.90;;;;;;6303327;22;20007;-60
2021/08/01 09:55:29;;;;;;;7.70;2.60;;;19.40;99.90;;;;;;6302846;22;20079;-61
2021/08/01 09:57:57;;;;;;;6.30;2.22;;;19.30;99.90;;;;;;6302795;22;20007;-61
2021/08/01 10:00:23;;;;;;;8.88;3.10;;;19.20;99.90;;;;;;6303073;22;20097;-60
2021/08/01 10:02:49;;;;;;;6.05;2.88;;;19.10;99.90;;;;;;6304653;22;19999;-60
2021/08/01 10:05:23;;;;;;;7.35;2.38;;;19.00;99.90;;;;;;6302641;22;20022;-61
2021/08/01 10:07:50;;;;;;;6.88;3.20;;;19.10;99.90;;;;;;6303660;22;20426;-61
2021/08/01 10:10:26;;;;;;;7.68;2.95;;;19.20;99.90;;;;;;6303206;22;20439;-59
2021/08/01 10:12:57;;;;;;;5.80;2.75;;;19.20;99.90;;;;;;6301605;22;20059;-60
2021/08/01 10:15:24;;;;;;;6.45;2.28;;;19.20;99.90;;;;;;6303302;22;19995;-58
2021/08/01 10:17:49;;;;;;;7.07;2.38;;;19.40;99.90;;;;;;6302866;22;20053;-60
2021/08/01 10:20:15;;;;;;;9.90;2.55;;;19.60;99.90;;;;;;6303440;22;20003;-60
2021/08/01 10:22:42;;;;;;;10.45;3.10;;;19.60;99.90;;;;;;6304138;22;19999;-61
2021/08/01 10:25:10;;;;;;;6.00;3.22;;;19.80;99.90;;;;;;6302638;22;20007;-61
2021/08/01 10:27:46;;;;;;;7.38;3.10;;;19.80;99.90;;;;;;6304026;22;20003;-60
2021/08/01 10:30:20;;;;;;;7.40;3.97;;;19.50;99.90;;;;;;6302473;22;20133;-61
2021/08/01 10:32:51;;;;;;;8.10;3.30;;;19.60;99.90;;;;;;6303170;22;20430;-61
2021/08/01 10:35:21;;;;;;;10.40;3.60;;;19.40;99.90;;;;;;6302853;22;19995;-61
2021/08/01 10:37:58;;;;;;;8.98;3.63;;;19.70;99.90;;;;;;6303020;22;20044;-61
2021/08/01 10:40:26;;;;;;;7.70;3.00;;;20.40;99.90;;;;;;6304444;22;20046;-60
2021/08/01 10:43:00;;;;;;;9.30;3.13;;;21.00;99.90;;;;;;6303595;22;20006;-61
2021/08/01 10:45:25;;;;;;;8.45;2.95;;;21.10;99.90;;;;;;6303314;22;20003;-61
2021/08/01 10:47:52;;;;;;;11.45;2.92;;;21.30;99.90;;;;;;6302948;22;20006;-61
2021/08/01 10:50:23;;;;;;;8.15;3.03;;;21.50;99.90;;;;;;6303494;22;20023;-58
2021/08/01 10:52:49;;;;;;;12.27;2.67;;;21.60;99.90;;;;;;6302945;22;20006;-60
2021/08/01 10:55:22;;;;;;;10.13;3.67;;;21.10;99.90;;;;;;6302649;22;20007;-59
2021/08/01 10:58:17;;;;;;;7.57;2.95;;;20.80;99.90;;;;;;6303246;22;20026;-60
2021/08/01 11:01:02;;;;;;;5.75;2.60;;;20.80;99.90;;;;;;6301571;22;20070;-60
2021/08/01 11:03:30;;;;;;;5.88;2.25;;;20.90;99.90;;;;;;6302559;22;20003;-61
2021/08/01 11:05:56;;;;;;;5.95;2.35;;;21.20;99.90;;;;;;6299384;22;20072;-58
2021/08/01 11:08:22;;;;;;;6.63;3.00;;;21.50;99.90;;;;;;6301352;22;20396;-61
2021/08/01 11:11:07;;;;;;;11.80;2.80;;;21.90;99.90;;;;;;6303308;22;20030;-62
2021/08/01 11:13:35;;;;;;;7.75;3.00;;;21.80;99.90;;;;;;6303759;22;20011;-60
2021/08/01 11:16:01;;;;;;;6.50;2.83;;;21.80;99.90;;;;;;6303548;22;19999;-61
2021/08/01 11:18:38;;;;;;;8.32;2.97;;;21.70;99.90;;;;;;6303902;22;19999;-62
2021/08/01 11:21:05;;;;;;;6.35;3.08;;;21.30;99.90;;;;;;6304097;22;20023;-61
2021/08/01 11:23:46;;;;;;;3.70;2.45;;;21.10;99.90;;;;;;6304244;22;20073;-59
2021/08/01 11:26:16;;;;;;;10.00;2.67;;;21.00;99.90;;;;;;6302321;22;20010;-61
2021/08/01 11:28:44;;;;;;;5.70;2.65;;;21.20;99.90;;;;;;6303396;22;20010;-58
2021/08/01 11:31:21;;;;;;;7.82;3.15;;;21.50;99.90;;;;;;6302704;22;20011;-59
2021/08/01 11:33:52;;;;;;;6.53;3.38;;;21.70;99.90;;;;;;6303143;22;20447;-63
2021/08/01 11:36:19;;;;;;;7.28;3.10;;;21.80;99.90;;;;;;6302417;22;20000;-62
2021/08/01 11:38:53;;;;;;;3.83;2.65;;;21.60;99.90;;;;;;6304054;22;19999;-62
2021/08/01 11:43:59;;;;;;;5.35;2.88;;;21.40;99.90;;;;;;6304084;22;20007;-62
2021/08/01 11:46:27;;;;;;;8.40;3.88;;;21.90;99.90;;;;;;6303395;22;20064;-61
2021/08/01 11:48:59;;;;;;;8.98;2.92;;;22.00;99.90;;;;;;6303532;22;20034;-59
2021/08/01 11:51:30;;;;;;;4.82;2.10;;;22.10;99.90;;;;;;6303242;22;20029;-59
2021/08/01 11:53:56;;;;;;;5.05;2.53;;;21.70;99.90;;;;;;6303688;22;20015;-60
2021/08/01 11:56:23;;;;;;;4.82;2.47;;;21.00;99.90;;;;;;6303072;22;20004;-60
2021/08/01 11:58:54;;;;;;;4.88;2.38;;;21.10;99.90;;;;;;6302731;22;20011;-61
2021/08/01 12:01:20;;;;;;;5.00;2.65;;;21.20;99.90;;;;;;6303766;22;20052;-63
2021/08/01 12:03:48;;;;;;;4.60;2.85;;;20.90;99.90;;;;;;6304246;22;20000;-60
2021/08/01 12:06:37;;;;;;;10.43;3.20;;;21.10;99.90;;;;;;6304529;22;20076;-62
2021/08/01 12:09:30;;;;;;;7.05;2.83;;;21.30;99.90;;;;;;6306943;22;20025;-62
2021/08/01 12:12:01;;;;;;;5.88;2.78;;;21.50;99.90;;;;;;6307411;22;20056;-61
2021/08/01 12:14:32;;;;;;;4.45;2.40;;;21.80;99.90;;;;;;6308081;22;20370;-63
2021/08/01 12:17:03;;;;;;;4.97;2.25;;;22.10;99.90;;;;;;6307469;22;20025;-63
2021/08/01 12:19:40;;;;;;;6.32;3.00;;;22.40;99.90;;;;;;6307862;22;20014;-63
2021/08/01 12:22:09;;;;;;;6.25;2.38;;;22.60;99.90;;;;;;6307184;22;19999;-63
2021/08/01 12:24:44;;;;;;;4.82;2.30;;;22.60;99.90;;;;;;6307104;22;20006;-64
2021/08/01 12:27:15;;;;;;;;;;;22.20;99.90;;;;;;6307040;22;20006;-63
2021/08/01 12:29:43;;;;;;;4.38;2.17;;;22.00;99.90;;;;;;6307014;22;20032;-64
2021/08/01 12:32:23;;;;;;;6.78;2.70;;;21.80;99.90;;;;;;6306338;22;20007;-63
2021/08/01 12:34:51;;;;;;;6.32;2.72;;;21.70;99.90;;;;;;6306880;22;20023;-61
2021/08/01 12:37:17;;;;;;;3.90;2.70;;;21.80;99.90;;;;;;6307054;22;19999;-62
2021/08/01 12:39:51;;;;;;;4.05;2.55;;;22.00;99.90;;;;;;6307749;22;20038;-62
2021/08/01 12:42:18;;;;;;;6.07;3.07;;;22.20;99.90;;;;;;6306993;22;20331;-61
2021/08/01 12:44:55;;;;;;;6.35;2.83;;;22.70;99.90;;;;;;6307287;22;20031;-60
2021/08/01 12:47:22;;;;;;;8.55;2.97;;;22.60;99.90;;;;;;6306720;22;20316;-63
2021/08/01 12:49:48;;;;;;;8.38;3.35;;;22.70;99.90;;;;;;6307101;22;19999;-62
2021/08/01 12:52:25;;;;;;;5.00;2.28;;;23.00;99.90;;;;;;6306784;22;20439;-60
2021/08/01 12:54:53;;;;;;;6.93;2.38;;;23.20;99.90;;;;;;6307293;22;20413;-61
2021/08/01 12:57:20;;;;;;;9.20;3.17;;;23.50;99.90;;;;;;6306433;22;20104;-61